Time;durP1;ratioP1;P1;durP2;ratioP2;P2;SDS_P1;SDS_P2;PMS_P1;PMS_P2;Temp;Humidity;BMP_temperature;BMP_pressure;BME280_temperature;BME280_humidity;BME280_pressure;Samples;Min_cycle;Max_cycle;Signal;HPM_P1;HPM_P2
2021/07/27 00:01:35;;;;;;;0.35;0.30;;;20.30;71.60;;;;;;5028222;28;20026;-80
2021/07/27 00:04:00;;;;;;;0.30;0.22;;;20.20;71.70;;;;;;5017958;28;20037;-80
2021/07/27 00:06:26;;;;;;;0.40;0.20;;;20.10;72.50;;;;;;5018359;28;20032;-80
2021/07/27 00:08:51;;;;;;;0.40;0.30;;;20.20;71.50;;;;;;5018448;28;20022;-80
2021/07/27 00:11:17;;;;;;;0.40;0.20;;;20.30;71.20;;;;;;5017896;28;20041;-80
2021/07/27 00:13:43;;;;;;;0.32;0.20;;;20.30;70.70;;;;;;5018269;28;20041;-80
2021/07/27 00:16:08;;;;;;;0.50;0.20;;;20.30;71.30;;;;;;5017681;28;20042;-80
2021/07/27 00:18:34;;;;;;;0.60;0.30;;;20.30;71.10;;;;;;5017368;28;20030;-80
2021/07/27 00:21:01;;;;;;;0.40;0.30;;;20.30;71.50;;;;;;5018084;28;20060;-80
2021/07/27 00:23:26;;;;;;;0.65;0.30;;;20.40;71.50;;;;;;5018081;28;20025;-80
2021/07/27 00:25:52;;;;;;;0.57;0.30;;;20.50;71.20;;;;;;5017798;28;20063;-81
2021/07/27 00:28:18;;;;;;;0.40;0.30;;;20.40;71.70;;;;;;5017718;28;20033;-80
2021/07/27 00:30:44;;;;;;;0.70;0.30;;;20.40;72.00;;;;;;5017916;28;20034;-81
2021/07/27 00:33:09;;;;;;;0.30;0.20;;;20.40;71.80;;;;;;5033131;28;20497;-80
2021/07/27 00:35:35;;;;;;;0.32;0.20;;;20.30;72.70;;;;;;5017595;28;20061;-80
2021/07/27 00:38:12;;;;;;;0.60;0.30;;;20.30;72.70;;;;;;5017704;28;20097;-80
2021/07/27 00:40:39;;;;;;;0.50;0.20;;;20.20;72.60;;;;;;5017886;28;20025;-80
2021/07/27 00:43:08;;;;;;;0.43;0.30;;;20.10;73.10;;;;;;5017523;28;20782;-80
2021/07/27 00:45:33;;;;;;;0.32;0.20;;;20.10;73.40;;;;;;5017387;28;20062;-80
2021/07/27 00:48:00;;;;;;;0.20;0.20;;;19.90;73.80;;;;;;5037530;28;20032;-80
2021/07/27 00:50:25;;;;;;;0.77;0.25;;;19.90;74.10;;;;;;5025467;28;20040;-80
2021/07/27 00:52:53;;;;;;;0.43;0.30;;;20.00;74.00;;;;;;5021166;28;20412;-80
2021/07/27 00:55:19;;;;;;;0.40;0.22;;;20.00;73.60;;;;;;5037183;28;20040;-80
2021/07/27 00:57:45;;;;;;;0.47;0.30;;;19.90;73.80;;;;;;5037295;28;20021;-80
2021/07/27 01:00:12;;;;;;;0.40;0.30;;;19.90;73.90;;;;;;5020967;28;20030;-80
2021/07/27 01:02:37;;;;;;;0.30;0.30;;;20.00;73.50;;;;;;5017305;28;20029;-80
2021/07/27 01:05:04;;;;;;;0.77;0.38;;;20.00;73.90;;;;;;5017269;28;20033;-80
2021/07/27 01:07:30;;;;;;;0.70;0.40;;;19.90;73.80;;;;;;5017095;28;20255;-80
2021/07/27 01:09:56;;;;;;;0.30;0.28;;;20.00;73.80;;;;;;5017100;28;20029;-80
2021/07/27 01:12:21;;;;;;;0.60;0.30;;;19.80;74.10;;;;;;5016887;28;20503;-80
2021/07/27 01:14:47;;;;;;;0.40;0.30;;;19.90;74.20;;;;;;5016883;28;20029;-80
2021/07/27 01:17:13;;;;;;;0.65;0.40;;;19.80;74.50;;;;;;5017004;28;20030;-80
2021/07/27 01:20:08;;;;;;;0.50;0.30;;;19.70;75.00;;;;;;5016816;28;20018;-80
2021/07/27 01:44:05;;;;;;;0.50;0.30;;;19.80;73.80;;;;;;5016932;28;20484;-80
2021/07/27 01:46:34;;;;;;;0.40;0.30;;;19.70;74.50;;;;;;5024449;28;20452;-80
2021/07/27 01:49:00;;;;;;;0.50;0.30;;;19.70;74.30;;;;;;5032988;28;20026;-80
2021/07/27 01:51:26;;;;;;;0.70;0.40;;;19.80;74.00;;;;;;5015296;28;20033;-80
2021/07/27 01:53:54;;;;;;;0.57;0.40;;;19.80;74.00;;;;;;5029777;28;20022;-80
2021/07/27 01:56:21;;;;;;;0.50;0.30;;;19.70;74.40;;;;;;5034631;28;20056;-80
2021/07/27 01:58:51;;;;;;;0.40;0.30;;;19.60;74.40;;;;;;5017968;28;20018;-80
2021/07/27 02:01:37;;;;;;;;;;;;;;;;;;;;;
2021/07/27 02:04:03;;;;;;;0.50;0.25;;;19.70;73.90;;;;;;5016000;28;20026;-79
2021/07/27 02:06:29;;;;;;;0.28;0.20;;;19.70;74.00;;;;;;5015058;28;20576;-80
2021/07/27 02:08:55;;;;;;;0.40;0.30;;;19.60;74.50;;;;;;5016244;28;20072;-80
2021/07/27 02:11:26;;;;;;;0.52;0.32;;;19.40;74.60;;;;;;5016476;28;20028;-80
2021/07/27 02:13:54;;;;;;;0.82;0.40;;;19.40;75.00;;;;;;5015930;28;20113;-80
2021/07/27 02:16:20;;;;;;;0.40;0.30;;;19.40;74.70;;;;;;5015830;28;20037;-80
2021/07/27 02:18:49;;;;;;;0.60;0.35;;;19.40;74.70;;;;;;5016361;28;20480;-80
2021/07/27 02:21:15;;;;;;;0.55;0.20;;;19.40;75.10;;;;;;5015677;28;20088;-80
2021/07/27 02:23:40;;;;;;;0.80;0.40;;;19.50;74.50;;;;;;5015978;28;20033;-80
2021/07/27 02:26:08;;;;;;;0.25;0.20;;;19.30;74.50;;;;;;5015564;28;20108;-80
2021/07/27 02:28:33;;;;;;;0.50;0.20;;;19.30;74.50;;;;;;5014523;28;20045;-80
2021/07/27 02:31:01;;;;;;;0.52;0.40;;;19.50;73.80;;;;;;5015958;28;20036;-80
2021/07/27 02:33:28;;;;;;;0.50;0.30;;;19.30;74.40;;;;;;5015339;28;20391;-80
2021/07/27 02:35:56;;;;;;;0.35;0.25;;;19.30;74.20;;;;;;5014447;28;20029;-80
2021/07/27 02:38:22;;;;;;;0.35;0.20;;;19.30;74.50;;;;;;5014667;28;20080;-80
2021/07/27 02:40:48;;;;;;;0.50;0.30;;;19.30;74.60;;;;;;5015515;28;20026;-80
2021/07/27 02:43:14;;;;;;;0.50;0.30;;;19.30;74.60;;;;;;5015308;28;20050;-80
2021/07/27 02:45:39;;;;;;;0.45;0.25;;;19.20;74.50;;;;;;5016434;28;20036;-80
2021/07/27 02:48:06;;;;;;;0.30;0.20;;;19.30;74.30;;;;;;5035435;28;20036;-80
2021/07/27 02:50:35;;;;;;;0.30;0.22;;;19.20;74.50;;;;;;5026585;28;20053;-80
2021/07/27 02:53:00;;;;;;;0.20;0.20;;;19.30;74.50;;;;;;5022005;28;20068;-80
2021/07/27 02:55:26;;;;;;;0.38;0.28;;;19.20;75.00;;;;;;5016796;28;20034;-80
2021/07/27 02:57:52;;;;;;;0.57;0.30;;;19.30;74.30;;;;;;5015566;28;20021;-80
2021/07/27 03:00:18;;;;;;;0.70;0.38;;;19.30;74.10;;;;;;5015512;28;20033;-80
2021/07/27 03:02:45;;;;;;;0.60;0.40;;;19.40;74.30;;;;;;5015284;28;20029;-80
2021/07/27 03:05:13;;;;;;;0.40;0.30;;;19.30;74.70;;;;;;5014451;28;20036;-80
2021/07/27 03:10:18;;;;;;;0.38;0.25;;;19.30;75.00;;;;;;5015562;28;20030;-80
2021/07/27 03:12:54;;;;;;;0.55;0.28;;;19.30;75.40;;;;;;5015449;28;20105;-80
2021/07/27 03:15:37;;;;;;;0.40;0.20;;;19.10;76.00;;;;;;5015085;28;20069;-80
2021/07/27 03:18:03;;;;;;;0.40;0.20;;;19.10;76.30;;;;;;5015063;28;20033;-80
2021/07/27 03:20:29;;;;;;;0.38;0.28;;;19.20;76.20;;;;;;5015351;28;20488;-80
2021/07/27 03:22:58;;;;;;;0.40;0.30;;;19.20;76.00;;;;;;5015003;28;20472;-80
2021/07/27 03:25:25;;;;;;;0.30;0.20;;;19.30;76.00;;;;;;5014954;28;20045;-80
2021/07/27 03:27:52;;;;;;;0.45;0.40;;;19.30;75.80;;;;;;5015164;28;20044;-80
2021/07/27 03:30:19;;;;;;;0.40;0.28;;;19.20;76.50;;;;;;5014869;28;20511;-80
2021/07/27 03:32:55;;;;;;;0.28;0.20;;;19.20;76.40;;;;;;5015307;28;20095;-80
2021/07/27 03:35:21;;;;;;;0.40;0.30;;;19.20;76.60;;;;;;5014996;28;20065;-80
2021/07/27 03:37:46;;;;;;;0.60;0.40;;;19.30;76.20;;;;;;5014857;28;20050;-80
2021/07/27 03:40:13;;;;;;;0.40;0.30;;;19.30;76.10;;;;;;5015176;28;20026;-80
2021/07/27 03:42:39;;;;;;;0.47;0.30;;;19.30;76.00;;;;;;5015120;28;20025;-80
2021/07/27 03:45:05;;;;;;;0.30;0.30;;;19.30;76.30;;;;;;5014770;28;20066;-80
2021/07/27 03:47:31;;;;;;;0.40;0.30;;;19.10;76.90;;;;;;5031310;28;20387;-80
2021/07/27 03:49:57;;;;;;;0.80;0.30;;;19.10;77.20;;;;;;5020168;28;20073;-80
2021/07/27 03:52:23;;;;;;;0.52;0.30;;;19.10;77.40;;;;;;5016175;28;20041;-80
2021/07/27 03:54:50;;;;;;;0.38;0.30;;;19.00;77.50;;;;;;5036916;28;20036;-80
2021/07/27 03:57:16;;;;;;;0.30;0.20;;;19.00;77.40;;;;;;5029360;28;20061;-80
2021/07/27 03:59:41;;;;;;;0.30;0.30;;;19.00;77.60;;;;;;5018372;28;20153;-80
2021/07/27 04:02:07;;;;;;;0.43;0.30;;;19.00;77.40;;;;;;5018427;28;20104;-79
2021/07/27 04:04:36;;;;;;;0.52;0.40;;;18.90;77.80;;;;;;5018284;28;20038;-80
2021/07/27 04:07:02;;;;;;;0.35;0.30;;;18.90;78.20;;;;;;5018442;28;20033;-80
2021/07/27 04:09:28;;;;;;;0.47;0.30;;;18.90;78.20;;;;;;5017082;28;20057;-80
2021/07/27 04:11:54;;;;;;;0.50;0.30;;;18.90;78.20;;;;;;5018720;28;20029;-80
2021/07/27 04:14:20;;;;;;;0.40;0.20;;;18.90;78.40;;;;;;5016805;28;20037;-80
2021/07/27 04:16:46;;;;;;;0.38;0.30;;;18.80;78.80;;;;;;5018016;28;20030;-80
2021/07/27 04:19:11;;;;;;;0.43;0.30;;;18.80;78.80;;;;;;5018310;28;20033;-80
2021/07/27 04:21:40;;;;;;;0.60;0.35;;;18.80;79.10;;;;;;5018081;28;20030;-80
2021/07/27 04:24:05;;;;;;;0.55;0.20;;;18.70;79.80;;;;;;5016757;28;20036;-80
2021/07/27 04:26:31;;;;;;;0.28;0.20;;;18.70;80.00;;;;;;5017942;28;20033;-80
2021/07/27 04:28:57;;;;;;;0.50;0.30;;;18.50;80.60;;;;;;5018126;28;20097;-80
2021/07/27 04:31:23;;;;;;;0.20;0.20;;;18.50;80.90;;;;;;5017600;28;20029;-80
2021/07/27 04:33:48;;;;;;;0.40;0.30;;;18.50;80.80;;;;;;5017817;28;20512;-80
2021/07/27 04:36:15;;;;;;;0.40;0.30;;;18.60;80.60;;;;;;5017494;28;20044;-79
2021/07/27 04:38:40;;;;;;;0.50;0.38;;;18.70;80.10;;;;;;5017865;28;20491;-80
2021/07/27 04:41:18;;;;;;;;;;;;;;;;;;;;;
2021/07/27 04:43:43;;;;;;;0.40;0.30;;;18.60;80.50;;;;;;5023408;28;20025;-82
2021/07/27 04:46:09;;;;;;;0.40;0.28;;;18.70;80.30;;;;;;5025853;28;20049;-81
2021/07/27 04:48:39;;;;;;;0.63;0.32;;;18.80;79.90;;;;;;5037212;28;20067;-80
2021/07/27 04:51:05;;;;;;;0.52;0.25;;;18.90;79.00;;;;;;5037412;28;20021;-80
2021/07/27 04:53:33;;;;;;;0.50;0.40;;;18.90;79.60;;;;;;5036142;28;20041;-81
2021/07/27 04:56:00;;;;;;;0.40;0.30;;;18.90;79.40;;;;;;5033041;28;20587;-79
2021/07/27 04:58:29;;;;;;;0.45;0.30;;;19.00;79.20;;;;;;5022958;28;20035;-80
2021/07/27 05:01:04;;;;;;;0.32;0.30;;;19.00;79.30;;;;;;5025204;28;20030;-80
2021/07/27 05:03:44;;;;;;;0.45;0.30;;;18.90;79.70;;;;;;5028340;28;20107;-78
2021/07/27 05:06:10;;;;;;;0.57;0.20;;;19.00;79.30;;;;;;5026552;28;20081;-79
2021/07/27 05:08:36;;;;;;;0.47;0.30;;;19.00;79.70;;;;;;5033847;28;20574;-76
2021/07/27 05:11:02;;;;;;;0.60;0.40;;;19.00;79.40;;;;;;5030884;28;20487;-79
2021/07/27 05:13:28;;;;;;;0.57;0.30;;;19.10;79.30;;;;;;5027934;28;20118;-77
2021/07/27 05:15:54;;;;;;;0.35;0.28;;;19.10;79.20;;;;;;5029329;28;20053;-80
2021/07/27 05:18:20;;;;;;;0.38;0.30;;;19.20;78.70;;;;;;5029843;28;20061;-80
2021/07/27 05:20:46;;;;;;;0.50;0.30;;;19.20;78.60;;;;;;5025386;28;20468;-79
2021/07/27 05:23:11;;;;;;;0.73;0.40;;;19.10;78.90;;;;;;5032328;28;20535;-80
2021/07/27 05:25:39;;;;;;;0.45;0.30;;;19.00;79.60;;;;;;5031185;28;20030;-80
2021/07/27 05:28:07;;;;;;;0.47;0.30;;;19.00;79.90;;;;;;5016710;28;20034;-81
2021/07/27 05:30:33;;;;;;;0.40;0.20;;;19.00;80.00;;;;;;5015068;28;20588;-81
2021/07/27 05:33:01;;;;;;;0.35;0.30;;;19.00;79.80;;;;;;5015791;28;20064;-81
2021/07/27 05:35:27;;;;;;;0.30;0.20;;;18.90;80.20;;;;;;5010846;28;20060;-80
2021/07/27 05:37:52;;;;;;;0.47;0.30;;;18.90;80.60;;;;;;5031691;28;20104;-80
2021/07/27 05:40:18;;;;;;;0.40;0.30;;;19.00;80.20;;;;;;5029553;28;20026;-80
2021/07/27 05:42:43;;;;;;;0.50;0.30;;;19.00;80.50;;;;;;5017235;28;20037;-80
2021/07/27 05:45:10;;;;;;;0.35;0.32;;;18.90;81.60;;;;;;5015170;28;20026;-80
2021/07/27 05:47:35;;;;;;;0.40;0.30;;;18.90;81.90;;;;;;5033307;28;20459;-79
2021/07/27 05:50:01;;;;;;;0.40;0.30;;;18.80;82.20;;;;;;5036277;28;20052;-79
2021/07/27 05:52:27;;;;;;;0.68;0.40;;;18.90;82.00;;;;;;5021585;28;20045;-79
2021/07/27 05:54:52;;;;;;;0.50;0.30;;;18.90;82.10;;;;;;5035760;28;20022;-79
2021/07/27 05:57:18;;;;;;;0.65;0.30;;;18.80;82.10;;;;;;5021127;28;20030;-80
2021/07/27 05:59:44;;;;;;;0.70;0.40;;;18.80;82.20;;;;;;5016094;28;20025;-79
2021/07/27 06:02:11;;;;;;;0.30;0.20;;;18.80;82.30;;;;;;5016268;28;20404;-79
2021/07/27 06:04:37;;;;;;;0.32;0.20;;;18.70;83.00;;;;;;5015815;28;20156;-80
2021/07/27 06:07:04;;;;;;;0.50;0.30;;;18.70;83.30;;;;;;5016100;28;20029;-79
2021/07/27 06:09:29;;;;;;;0.60;0.30;;;18.80;82.90;;;;;;5016080;28;20033;-79
2021/07/27 06:11:55;;;;;;;0.60;0.30;;;18.80;82.90;;;;;;5015862;28;20030;-79
2021/07/27 06:14:21;;;;;;;0.95;0.40;;;18.80;83.10;;;;;;5015908;28;20046;-79
2021/07/27 06:16:47;;;;;;;0.63;0.40;;;18.90;82.90;;;;;;5015044;28;20037;-79
2021/07/27 06:19:12;;;;;;;0.60;0.40;;;18.90;82.70;;;;;;5015972;28;20365;-79
2021/07/27 06:21:39;;;;;;;0.50;0.30;;;19.10;82.10;;;;;;5015649;28;20065;-79
2021/07/27 06:24:06;;;;;;;0.57;0.40;;;19.10;82.10;;;;;;5015895;28;20098;-79
2021/07/27 06:26:32;;;;;;;0.63;0.45;;;19.00;82.40;;;;;;5015740;28;20026;-79
2021/07/27 06:28:58;;;;;;;0.40;0.30;;;19.00;82.90;;;;;;5019459;28;20511;-79
2021/07/27 06:31:24;;;;;;;0.50;0.30;;;18.90;83.20;;;;;;5015717;28;20029;-80
2021/07/27 06:33:50;;;;;;;0.55;0.40;;;18.80;83.40;;;;;;5029549;28;20053;-80
2021/07/27 06:36:16;;;;;;;0.70;0.40;;;18.80;83.70;;;;;;5015491;28;20131;-79
2021/07/27 06:38:43;;;;;;;0.40;0.30;;;18.80;83.50;;;;;;5015820;28;20046;-80
2021/07/27 06:41:10;;;;;;;0.40;0.30;;;18.90;83.60;;;;;;5015464;28;20058;-80
2021/07/27 06:43:36;;;;;;;0.40;0.30;;;19.00;83.10;;;;;;5015734;28;20465;-80
2021/07/27 06:46:02;;;;;;;0.50;0.30;;;19.10;82.90;;;;;;5019398;28;20029;-79
2021/07/27 06:48:28;;;;;;;0.60;0.45;;;19.20;82.70;;;;;;5035326;28;20109;-80
2021/07/27 06:50:54;;;;;;;0.50;0.35;;;19.20;82.30;;;;;;5035119;28;20029;-79
2021/07/27 06:53:20;;;;;;;0.40;0.30;;;19.20;82.60;;;;;;5034214;28;20040;-80
2021/07/27 06:55:46;;;;;;;0.40;0.40;;;19.20;82.70;;;;;;5035134;28;20021;-79
2021/07/27 06:58:13;;;;;;;0.40;0.30;;;19.20;82.60;;;;;;5021265;28;20153;-79
2021/07/27 07:00:39;;;;;;;0.47;0.38;;;19.10;83.00;;;;;;5014240;28;20022;-79
2021/07/27 07:03:05;;;;;;;0.40;0.40;;;19.10;82.90;;;;;;5015424;28;20480;-80
2021/07/27 07:05:31;;;;;;;0.45;0.30;;;19.10;83.20;;;;;;5015393;28;20022;-79
2021/07/27 07:07:57;;;;;;;0.40;0.30;;;19.20;83.00;;;;;;5014337;28;20045;-79
2021/07/27 07:10:22;;;;;;;0.55;0.43;;;19.10;83.30;;;;;;5015242;28;20025;-79
2021/07/27 07:12:48;;;;;;;0.32;0.30;;;19.20;83.40;;;;;;5015442;28;20037;-80
2021/07/27 07:15:14;;;;;;;0.60;0.40;;;19.20;83.20;;;;;;5014879;28;20121;-80
2021/07/27 07:17:39;;;;;;;0.40;0.35;;;19.20;83.30;;;;;;5015290;28;20030;-79
2021/07/27 07:20:06;;;;;;;0.50;0.40;;;19.20;83.40;;;;;;5013978;28;20027;-79
2021/07/27 07:22:32;;;;;;;0.60;0.40;;;19.30;83.40;;;;;;5015157;28;20045;-79
2021/07/27 07:24:57;;;;;;;0.40;0.38;;;19.30;83.30;;;;;;5014976;28;20030;-79
2021/07/27 07:27:23;;;;;;;0.68;0.47;;;19.40;82.80;;;;;;5015325;28;20029;-79
2021/07/27 07:29:52;;;;;;;0.60;0.35;;;19.30;83.20;;;;;;5018912;28;20026;-79
2021/07/27 07:32:18;;;;;;;0.50;0.40;;;19.00;83.80;;;;;;5018995;28;20428;-80
2021/07/27 07:34:44;;;;;;;0.40;0.30;;;19.10;84.00;;;;;;5019007;28;20112;-79
2021/07/27 07:37:09;;;;;;;0.65;0.40;;;19.10;84.30;;;;;;5018697;28;20488;-80
2021/07/27 07:39:35;;;;;;;0.70;0.40;;;19.00;84.60;;;;;;5018640;28;20450;-79
2021/07/27 07:42:02;;;;;;;0.60;0.32;;;19.20;84.30;;;;;;5018924;28;20499;-80
2021/07/27 07:44:29;;;;;;;1.00;0.40;;;19.30;84.10;;;;;;5032716;28;20506;-80
2021/07/27 07:46:55;;;;;;;0.68;0.47;;;19.30;84.10;;;;;;5028588;28;20625;-80
2021/07/27 07:49:20;;;;;;;0.55;0.40;;;19.30;83.90;;;;;;5038527;28;20025;-80
2021/07/27 07:51:48;;;;;;;0.63;0.40;;;19.30;83.60;;;;;;5037079;28;20026;-79
2021/07/27 07:54:14;;;;;;;0.60;0.43;;;19.50;83.60;;;;;;5034867;28;20022;-80
2021/07/27 07:56:46;;;;;;;0.52;0.40;;;19.60;83.30;;;;;;5038447;28;20021;-80
2021/07/27 07:59:13;;;;;;;0.90;0.40;;;19.60;83.10;;;;;;5038254;28;20021;-80
2021/07/27 08:01:44;;;;;;;0.70;0.40;;;19.40;83.40;;;;;;5018768;28;20105;-79
2021/07/27 08:04:13;;;;;;;0.47;0.40;;;19.50;83.70;;;;;;5016947;28;20455;-79
2021/07/27 08:06:39;;;;;;;0.60;0.50;;;19.50;84.00;;;;;;5018314;28;20029;-80
2021/07/27 08:09:05;;;;;;;0.35;0.30;;;19.60;83.50;;;;;;5017987;28;20022;-80
2021/07/27 08:11:31;;;;;;;0.50;0.32;;;19.80;83.30;;;;;;5018287;28;20026;-80
2021/07/27 08:13:58;;;;;;;0.50;0.40;;;19.90;82.70;;;;;;5018134;28;20026;-80
2021/07/27 08:16:24;;;;;;;0.50;0.40;;;19.80;82.90;;;;;;5017893;28;20029;-79
2021/07/27 08:18:49;;;;;;;0.45;0.32;;;19.70;83.30;;;;;;5017148;28;20049;-79
2021/07/27 08:21:15;;;;;;;0.60;0.40;;;19.60;83.60;;;;;;5018059;28;20393;-80
2021/07/27 08:23:45;;;;;;;0.52;0.40;;;19.60;83.40;;;;;;5017730;28;20029;-79
2021/07/27 08:26:11;;;;;;;0.50;0.40;;;19.60;83.60;;;;;;5018043;28;20022;-80
2021/07/27 08:28:38;;;;;;;0.57;0.40;;;19.40;84.10;;;;;;5018167;28;20041;-79
2021/07/27 08:31:04;;;;;;;0.73;0.50;;;19.50;83.90;;;;;;5017694;28;20488;-80
2021/07/27 08:33:29;;;;;;;0.65;0.40;;;19.50;84.50;;;;;;5017486;28;20034;-80
2021/07/27 08:35:55;;;;;;;0.55;0.40;;;19.40;84.60;;;;;;5017728;28;20026;-79
2021/07/27 08:38:21;;;;;;;0.55;0.45;;;19.60;84.40;;;;;;5031386;28;20041;-80
2021/07/27 08:40:49;;;;;;;0.57;0.40;;;19.80;84.00;;;;;;5029931;28;20030;-80
2021/07/27 08:43:16;;;;;;;0.43;0.35;;;19.70;83.80;;;;;;5017634;28;20105;-80
2021/07/27 08:45:43;;;;;;;0.43;0.22;;;19.80;83.10;;;;;;5018828;28;20040;-80
2021/07/27 08:48:10;;;;;;;0.30;0.20;;;19.80;82.80;;;;;;5037141;28;20109;-80
2021/07/27 08:50:35;;;;;;;0.55;0.35;;;19.80;82.80;;;;;;5017888;28;20026;-79
2021/07/27 08:53:01;;;;;;;0.68;0.30;;;19.80;82.80;;;;;;5017522;28;20034;-79
2021/07/27 08:55:27;;;;;;;0.30;0.20;;;19.80;83.10;;;;;;5017560;28;20536;-80
2021/07/27 08:57:59;;;;;;;0.30;0.20;;;19.90;82.40;;;;;;5017432;28;20523;-80
2021/07/27 09:00:30;;;;;;;0.40;0.20;;;20.20;81.10;;;;;;5017262;28;20021;-80
2021/07/27 09:03:20;;;;;;;0.40;0.20;;;20.30;81.50;;;;;;5017243;28;20536;-79
2021/07/27 09:05:47;;;;;;;0.20;0.20;;;20.70;80.60;;;;;;5017340;28;20026;-79
2021/07/27 09:08:16;;;;;;;0.20;0.20;;;21.00;78.50;;;;;;5017239;28;20025;-80
2021/07/27 09:10:43;;;;;;;0.28;0.20;;;21.10;79.50;;;;;;5032171;28;20030;-79
2021/07/27 09:13:15;;;;;;;0.40;0.20;;;21.00;79.60;;;;;;5031469;28;20042;-80
2021/07/27 09:15:44;;;;;;;0.30;0.20;;;21.10;79.50;;;;;;5015286;28;20037;-79
2021/07/27 09:18:12;;;;;;;0.35;0.20;;;21.10;77.80;;;;;;5017141;28;20523;-79
2021/07/27 09:20:48;;;;;;;0.30;0.20;;;21.10;78.70;;;;;;5016737;28;20029;-80
2021/07/27 09:23:16;;;;;;;0.20;0.20;;;21.40;78.40;;;;;;5017057;28;20049;-80
2021/07/27 09:25:48;;;;;;;0.65;0.20;;;21.60;78.60;;;;;;5016472;28;20105;-79
2021/07/27 09:28:13;;;;;;;0.15;0.10;;;21.90;77.60;;;;;;5016789;28;20414;-79
2021/07/27 09:30:41;;;;;;;0.20;0.10;;;21.80;75.30;;;;;;5016637;28;20053;-79
2021/07/27 09:33:08;;;;;;;0.20;0.10;;;22.10;73.50;;;;;;5016585;28;20034;-80
2021/07/27 09:35:34;;;;;;;0.10;0.10;;;22.20;73.60;;;;;;5016606;28;20045;-80
2021/07/27 09:38:15;;;;;;;0.20;0.10;;;22.00;73.80;;;;;;5016441;28;20481;-79
2021/07/27 09:41:07;;;;;;;0.10;0.10;;;21.70;73.70;;;;;;5016489;28;20060;-80
2021/07/27 09:43:33;;;;;;;0.10;0.10;;;21.60;74.20;;;;;;5016448;28;20029;-80
2021/07/27 09:46:00;;;;;;;0.10;0.10;;;21.70;74.20;;;;;;5019765;28;20548;-80
2021/07/27 09:48:28;;;;;;;0.20;0.10;;;21.80;74.30;;;;;;5036207;28;20120;-80
2021/07/27 09:50:55;;;;;;;0.20;0.10;;;21.70;73.70;;;;;;5024309;28;20057;-80
2021/07/27 09:53:22;;;;;;;0.10;0.10;;;21.70;74.00;;;;;;5023762;28;20048;-80
2021/07/27 09:55:48;;;;;;;0.10;0.10;;;21.70;73.70;;;;;;5028676;28;20053;-79
2021/07/27 09:58:14;;;;;;;0.30;0.20;;;21.80;73.50;;;;;;5016237;28;20060;-80
2021/07/27 10:01:00;;;;;;;0.10;0.10;;;21.70;72.50;;;;;;5016294;28;20018;-80
2021/07/27 10:03:27;;;;;;;0.20;0.10;;;21.60;72.10;;;;;;5015959;28;20030;-81
2021/07/27 10:05:59;;;;;;;0.20;0.10;;;21.40;72.00;;;;;;5016075;28;20030;-80
2021/07/27 10:08:33;;;;;;;0.10;0.10;;;21.50;72.30;;;;;;5016283;28;20033;-80
2021/07/27 10:11:10;;;;;;;0.10;0.10;;;21.40;72.40;;;;;;5015994;28;20022;-80
2021/07/27 10:13:37;;;;;;;0.08;0.03;;;21.50;72.30;;;;;;5015890;28;20033;-79
2021/07/27 10:16:04;;;;;;;0.13;0.10;;;21.60;72.80;;;;;;5015639;28;20026;-80
2021/07/27 10:18:32;;;;;;;0.30;0.10;;;21.60;73.10;;;;;;5014812;28;20034;-80
2021/07/27 10:21:24;;;;;;;0.22;0.17;;;21.70;73.90;;;;;;5015768;28;20022;-79
2021/07/27 10:23:50;;;;;;;0.10;0.10;;;21.80;73.90;;;;;;5016347;28;20057;-80
2021/07/27 10:26:28;;;;;;;0.00;0.00;;;22.00;73.80;;;;;;5015792;28;20449;-80
2021/07/27 10:28:55;;;;;;;0.20;0.10;;;22.30;71.10;;;;;;5014387;28;20037;-80
2021/07/27 10:31:37;;;;;;;0.10;0.10;;;22.60;70.00;;;;;;5015426;28;20066;-80
2021/07/27 10:34:05;;;;;;;0.10;0.10;;;22.60;68.60;;;;;;5014283;28;20058;-80
2021/07/27 10:36:36;;;;;;;0.10;0.10;;;22.60;68.00;;;;;;5015593;28;20479;-80
2021/07/27 10:39:06;;;;;;;0.15;0.10;;;22.30;67.80;;;;;;5015745;28;20026;-80
2021/07/27 10:41:45;;;;;;;0.10;0.10;;;22.50;68.50;;;;;;5027308;28;20057;-80
2021/07/27 10:44:16;;;;;;;0.10;0.10;;;22.60;66.10;;;;;;5015557;28;20400;-80
2021/07/27 10:46:46;;;;;;;0.20;0.10;;;22.70;65.80;;;;;;5025124;28;20483;-80
2021/07/27 10:49:22;;;;;;;0.17;0.17;;;22.80;66.50;;;;;;5016845;28;20018;-80
2021/07/27 10:51:52;;;;;;;0.05;0.05;;;23.20;66.00;;;;;;5015605;28;20168;-79
2021/07/27 10:54:29;;;;;;;0.10;0.10;;;23.30;63.20;;;;;;5016820;28;20049;-80
2021/07/27 10:56:58;;;;;;;0.10;0.10;;;23.40;63.50;;;;;;5015587;28;20038;-79
2021/07/27 10:59:26;;;;;;;0.00;0.00;;;23.80;64.60;;;;;;5015697;28;20037;-80
2021/07/27 11:01:55;;;;;;;0.20;0.10;;;23.90;62.50;;;;;;5015180;28;20022;-80
2021/07/27 11:04:32;;;;;;;0.10;0.10;;;24.10;62.60;;;;;;5018946;28;20037;-80
2021/07/27 11:07:13;;;;;;;0.10;0.10;;;24.00;61.90;;;;;;5019804;28;20038;-79
2021/07/27 11:09:59;;;;;;;0.20;0.10;;;24.00;62.50;;;;;;5034059;28;20062;-80
2021/07/27 11:12:29;;;;;;;0.10;0.10;;;23.80;63.30;;;;;;5018965;28;20053;-79
2021/07/27 11:15:09;;;;;;;0.10;0.03;;;23.90;63.00;;;;;;5017801;28;20026;-80
2021/07/27 11:17:38;;;;;;;;;;;23.60;63.80;;;;;;5019569;28;20392;-79
2021/07/27 11:20:05;;;;;;;0.10;0.10;;;23.90;62.60;;;;;;5019402;28;19909;-80
2021/07/27 11:22:31;;;;;;;0.00;0.00;;;24.00;62.10;;;;;;5019089;28;20030;-80
2021/07/27 11:24:58;;;;;;;0.03;0.03;;;24.10;63.40;;;;;;5021389;28;20042;-79
2021/07/27 11:27:31;;;;;;;0.00;0.00;;;23.80;60.10;;;;;;5026483;28;20499;-79
2021/07/27 11:30:05;;;;;;;0.03;0.03;;;23.60;60.80;;;;;;5034074;28;20036;-80
2021/07/27 11:32:38;;;;;;;0.20;0.10;;;23.40;61.80;;;;;;5018715;28;20032;-80
2021/07/27 11:35:05;;;;;;;0.17;0.10;;;23.40;61.10;;;;;;5018859;28;20046;-79
2021/07/27 11:37:30;;;;;;;0.10;0.10;;;23.40;60.20;;;;;;5018745;28;20435;-79
2021/07/27 11:39:56;;;;;;;0.10;0.00;;;23.70;61.80;;;;;;5018981;28;20072;-79
2021/07/27 11:42:32;;;;;;;0.20;0.10;;;24.00;61.00;;;;;;5018381;28;20030;-79
2021/07/27 11:45:04;;;;;;;0.10;0.10;;;24.10;60.10;;;;;;5018708;28;20037;-80
2021/07/27 11:47:43;;;;;;;0.05;0.05;;;23.90;59.20;;;;;;5031168;28;20034;-79
2021/07/27 11:50:13;;;;;;;0.00;0.00;;;23.90;60.20;;;;;;5018764;28;20105;-79
2021/07/27 11:52:40;;;;;;;0.10;0.10;;;23.70;59.30;;;;;;5022177;28;20043;-79
2021/07/27 11:55:07;;;;;;;0.10;0.10;;;23.70;61.20;;;;;;5038237;28;20136;-79
2021/07/27 11:57:34;;;;;;;0.10;0.10;;;23.80;60.20;;;;;;5021334;28;20406;-79
2021/07/27 12:00:10;;;;;;;0.10;0.10;;;24.10;59.40;;;;;;5018769;28;20053;-79
2021/07/27 12:02:35;;;;;;;0.03;0.03;;;24.20;60.10;;;;;;5018502;28;20037;-78
2021/07/27 12:05:01;;;;;;;0.05;0.05;;;24.40;59.50;;;;;;5032428;28;20053;-79
2021/07/27 12:07:29;;;;;;;0.10;0.10;;;24.30;59.00;;;;;;5033563;28;20029;-79
2021/07/27 12:09:54;;;;;;;0.10;0.10;;;24.30;59.10;;;;;;5018222;28;20122;-79
2021/07/27 12:12:21;;;;;;;0.03;0.00;;;24.10;59.70;;;;;;5018244;28;20256;-80
2021/07/27 12:14:47;;;;;;;0.10;0.10;;;24.20;61.50;;;;;;5018568;28;20037;-80
2021/07/27 12:17:12;;;;;;;0.08;0.00;;;24.40;60.70;;;;;;5018333;28;20052;-78
2021/07/27 12:19:38;;;;;;;0.15;0.10;;;24.20;59.10;;;;;;5017923;28;20042;-79
2021/07/27 12:22:04;;;;;;;0.10;0.10;;;24.30;57.00;;;;;;5018218;28;20021;-79
2021/07/27 12:24:29;;;;;;;0.10;0.10;;;24.40;56.30;;;;;;5018173;28;20435;-80
2021/07/27 12:26:55;;;;;;;0.15;0.10;;;24.60;58.80;;;;;;5017766;28;20547;-80
2021/07/27 12:29:20;;;;;;;0.10;0.10;;;24.60;56.80;;;;;;5032864;28;20054;-79
2021/07/27 12:31:46;;;;;;;0.10;0.10;;;24.80;55.80;;;;;;5017870;28;20026;-80
2021/07/27 12:34:12;;;;;;;0.10;0.10;;;24.80;55.30;;;;;;5017629;28;20046;-79
2021/07/27 12:36:38;;;;;;;0.10;0.10;;;24.60;55.00;;;;;;5016620;28;20026;-79
2021/07/27 12:39:03;;;;;;;0.10;0.10;;;24.90;54.90;;;;;;5016617;28;20939;-80
2021/07/27 12:41:29;;;;;;;0.03;0.03;;;25.00;54.60;;;;;;5019907;28;20030;-79
2021/07/27 12:43:55;;;;;;;0.10;0.10;;;25.00;54.90;;;;;;5022977;28;20029;-79
2021/07/27 12:46:24;;;;;;;0.00;0.00;;;25.00;54.30;;;;;;5024066;28;20499;-80
2021/07/27 12:48:50;;;;;;;0.20;0.05;;;25.30;53.50;;;;;;5033273;28;20030;-79
2021/07/27 12:51:20;;;;;;;0.00;0.00;;;25.20;54.10;;;;;;5017625;28;20033;-79
2021/07/27 12:53:47;;;;;;;0.03;0.03;;;25.00;54.30;;;;;;5029050;28;20502;-79
2021/07/27 12:56:14;;;;;;;0.10;0.10;;;25.30;53.90;;;;;;5017436;28;20396;-80
2021/07/27 12:58:40;;;;;;;0.08;0.08;;;25.70;53.40;;;;;;5017166;28;20109;-79
2021/07/27 13:01:05;;;;;;;0.10;0.10;;;26.00;53.50;;;;;;5017248;28;20033;-79
2021/07/27 13:03:31;;;;;;;0.00;0.00;;;26.10;54.20;;;;;;5017485;28;20026;-79
2021/07/27 13:05:57;;;;;;;0.00;0.00;;;26.00;53.60;;;;;;5017026;28;20066;-79
2021/07/27 13:08:22;;;;;;;0.00;0.00;;;26.20;54.50;;;;;;5017327;28;20033;-80
2021/07/27 13:10:49;;;;;;;0.00;0.00;;;26.60;55.30;;;;;;5016969;28;20041;-79
2021/07/27 13:13:19;;;;;;;0.05;0.05;;;26.70;53.60;;;;;;5032456;28;20507;-80
2021/07/27 13:15:45;;;;;;;0.00;0.00;;;26.40;53.50;;;;;;5016876;28;20034;-79
2021/07/27 13:18:16;;;;;;;0.00;0.00;;;26.10;52.90;;;;;;5016911;28;20554;-79